HSH weather

Henderson Executive Airport
Las Vegas, Nevada, United States

Public forecast

Using degrees Fahrenheit for public forecast. Weather courtesy of forecast.io.

METAR (pilot weather report)

Retrieved 2019/04/22 10:56 UTC (43 minutes ago):

KHND 221056Z AUTO 35010G18KT 10SM CLR 16/02 A2998 RMK AO2 SLP137 T01610022 $

TAF (pilot weather forecast)

Retrieved 2019/04/22 06:22 UTC (5 hours ago):

TAF KHND 220520Z 2206/2306 34010KT P6SM SCT100 FM221700 02012KT P6SM FEW070 SCT100 FM230200 05009KT P6SM SCT100